sensor_id;sensor_type;location;lat;lon;timestamp;P1;durP1;ratioP1;P2;durP2;ratioP2
25905;SDS011;13713;52.552;13.204;2023-02-12T00:01:12;21.42;;;12.95;;
25905;SDS011;13713;52.552;13.204;2023-02-12T00:03:38;22.90;;;13.32;;
25905;SDS011;13713;52.552;13.204;2023-02-12T00:06:05;23.50;;;13.93;;
25905;SDS011;13713;52.552;13.204;2023-02-12T00:08:32;23.08;;;13.77;;
25905;SDS011;13713;52.552;13.204;2023-02-12T00:10:58;23.70;;;13.90;;
25905;SDS011;13713;52.552;13.204;2023-02-12T00:13:24;24.02;;;13.68;;
25905;SDS011;13713;52.552;13.204;2023-02-12T00:15:49;21.08;;;12.95;;
25905;SDS011;13713;52.552;13.204;2023-02-12T00:18:15;21.42;;;13.02;;
25905;SDS011;13713;52.552;13.204;2023-02-12T00:20:41;20.50;;;12.70;;
25905;SDS011;13713;52.552;13.204;2023-02-12T00:23:07;22.10;;;13.73;;
25905;SDS011;13713;52.552;13.204;2023-02-12T00:25:33;22.27;;;13.70;;
25905;SDS011;13713;52.552;13.204;2023-02-12T00:27:59;21.60;;;12.93;;
25905;SDS011;13713;52.552;13.204;2023-02-12T00:30:24;20.95;;;13.18;;
25905;SDS011;13713;52.552;13.204;2023-02-12T00:32:53;23.45;;;13.93;;
25905;SDS011;13713;52.552;13.204;2023-02-12T00:35:19;21.90;;;14.45;;
25905;SDS011;13713;52.552;13.204;2023-02-12T00:37:47;22.73;;;13.88;;
25905;SDS011;13713;52.552;13.204;2023-02-12T00:40:13;18.67;;;12.68;;
25905;SDS011;13713;52.552;13.204;2023-02-12T00:42:39;20.90;;;13.32;;
25905;SDS011;13713;52.552;13.204;2023-02-12T00:45:04;21.98;;;13.05;;
25905;SDS011;13713;52.552;13.204;2023-02-12T00:47:31;21.70;;;13.10;;
25905;SDS011;13713;52.552;13.204;2023-02-12T00:49:56;20.67;;;13.57;;
25905;SDS011;13713;52.552;13.204;2023-02-12T00:52:22;20.77;;;12.82;;
25905;SDS011;13713;52.552;13.204;2023-02-12T00:54:48;22.27;;;12.73;;
25905;SDS011;13713;52.552;13.204;2023-02-12T00:57:14;21.52;;;13.18;;
25905;SDS011;13713;52.552;13.204;2023-02-12T00:59:40;20.42;;;12.63;;
25905;SDS011;13713;52.552;13.204;2023-02-12T01:02:07;23.35;;;14.10;;
25905;SDS011;13713;52.552;13.204;2023-02-12T01:04:33;20.50;;;13.00;;
25905;SDS011;13713;52.552;13.204;2023-02-12T01:06:58;20.17;;;11.75;;
25905;SDS011;13713;52.552;13.204;2023-02-12T01:09:24;21.60;;;11.70;;
25905;SDS011;13713;52.552;13.204;2023-02-12T01:11:50;19.08;;;12.23;;
25905;SDS011;13713;52.552;13.204;2023-02-12T01:14:15;20.02;;;12.65;;
25905;SDS011;13713;52.552;13.204;2023-02-12T01:16:41;21.38;;;12.38;;
25905;SDS011;13713;52.552;13.204;2023-02-12T01:19:07;20.70;;;12.57;;
25905;SDS011;13713;52.552;13.204;2023-02-12T01:21:35;18.77;;;11.95;;
25905;SDS011;13713;52.552;13.204;2023-02-12T01:24:01;22.20;;;13.65;;
25905;SDS011;13713;52.552;13.204;2023-02-12T01:26:27;18.55;;;11.95;;
25905;SDS011;13713;52.552;13.204;2023-02-12T01:28:55;20.00;;;12.20;;
25905;SDS011;13713;52.552;13.204;2023-02-12T01:33:53;20.30;;;11.70;;
25905;SDS011;13713;52.552;13.204;2023-02-12T01:36:21;19.58;;;12.10;;
25905;SDS011;13713;52.552;13.204;2023-02-12T01:38:48;19.25;;;11.57;;
25905;SDS011;13713;52.552;13.204;2023-02-12T01:41:15;20.27;;;12.10;;
25905;SDS011;13713;52.552;13.204;2023-02-12T01:43:42;19.80;;;11.07;;
25905;SDS011;13713;52.552;13.204;2023-02-12T01:46:08;20.80;;;13.05;;
25905;SDS011;13713;52.552;13.204;2023-02-12T01:48:38;18.63;;;11.68;;
25905;SDS011;13713;52.552;13.204;2023-02-12T01:51:07;20.85;;;11.98;;
25905;SDS011;13713;52.552;13.204;2023-02-12T01:53:40;20.00;;;11.60;;
25905;SDS011;13713;52.552;13.204;2023-02-12T01:56:11;18.13;;;11.35;;
25905;SDS011;13713;52.552;13.204;2023-02-12T01:58:38;17.83;;;11.00;;
25905;SDS011;13713;52.552;13.204;2023-02-12T02:01:10;20.88;;;12.55;;
25905;SDS011;13713;52.552;13.204;2023-02-12T02:03:42;17.75;;;11.05;;
25905;SDS011;13713;52.552;13.204;2023-02-12T02:06:55;19.85;;;11.68;;
25905;SDS011;13713;52.552;13.204;2023-02-12T02:09:37;18.25;;;11.18;;
25905;SDS011;13713;52.552;13.204;2023-02-12T02:12:04;19.15;;;11.15;;
25905;SDS011;13713;52.552;13.204;2023-02-12T02:14:50;19.00;;;11.20;;
25905;SDS011;13713;52.552;13.204;2023-02-12T02:25:35;19.23;;;11.52;;
25905;SDS011;13713;52.552;13.204;2023-02-12T02:31:11;17.73;;;11.25;;
25905;SDS011;13713;52.552;13.204;2023-02-12T02:33:53;16.17;;;10.07;;
25905;SDS011;13713;52.552;13.204;2023-02-12T02:36:43;17.25;;;10.50;;
25905;SDS011;13713;52.552;13.204;2023-02-12T02:41:54;17.63;;;11.35;;
25905;SDS011;13713;52.552;13.204;2023-02-12T02:44:41;17.52;;;10.90;;
25905;SDS011;13713;52.552;13.204;2023-02-12T02:47:15;18.67;;;10.90;;
25905;SDS011;13713;52.552;13.204;2023-02-12T02:49:49;18.00;;;10.63;;
25905;SDS011;13713;52.552;13.204;2023-02-12T02:52:23;18.73;;;11.00;;
25905;SDS011;13713;52.552;13.204;2023-02-12T02:54:57;19.42;;;11.52;;
25905;SDS011;13713;52.552;13.204;2023-02-12T02:57:36;16.67;;;10.90;;
25905;SDS011;13713;52.552;13.204;2023-02-12T03:00:10;18.13;;;10.40;;
25905;SDS011;13713;52.552;13.204;2023-02-12T03:02:40;17.95;;;11.30;;
25905;SDS011;13713;52.552;13.204;2023-02-12T03:05:14;15.63;;;9.73;;
25905;SDS011;13713;52.552;13.204;2023-02-12T03:07:48;19.48;;;10.98;;
25905;SDS011;13713;52.552;13.204;2023-02-12T03:10:19;18.50;;;11.10;;
25905;SDS011;13713;52.552;13.204;2023-02-12T03:17:44;17.20;;;10.38;;
25905;SDS011;13713;52.552;13.204;2023-02-12T03:20:14;16.30;;;10.20;;
25905;SDS011;13713;52.552;13.204;2023-02-12T03:22:48;17.95;;;10.52;;
25905;SDS011;13713;52.552;13.204;2023-02-12T03:25:30;17.55;;;10.45;;
25905;SDS011;13713;52.552;13.204;2023-02-12T03:28:14;18.77;;;10.73;;
25905;SDS011;13713;52.552;13.204;2023-02-12T03:30:56;19.55;;;10.85;;
25905;SDS011;13713;52.552;13.204;2023-02-12T03:36:21;18.08;;;10.63;;
25905;SDS011;13713;52.552;13.204;2023-02-12T03:38:54;17.70;;;10.45;;
25905;SDS011;13713;52.552;13.204;2023-02-12T03:41:40;16.33;;;10.00;;
25905;SDS011;13713;52.552;13.204;2023-02-12T03:47:09;17.27;;;10.80;;
25905;SDS011;13713;52.552;13.204;2023-02-12T03:49:45;15.73;;;9.80;;
25905;SDS011;13713;52.552;13.204;2023-02-12T03:52:30;18.33;;;11.23;;
25905;SDS011;13713;52.552;13.204;2023-02-12T03:54:56;17.85;;;10.27;;
25905;SDS011;13713;52.552;13.204;2023-02-12T03:57:23;16.85;;;10.45;;
25905;SDS011;13713;52.552;13.204;2023-02-12T03:59:56;16.70;;;9.70;;
25905;SDS011;13713;52.552;13.204;2023-02-12T04:02:23;17.95;;;10.48;;
25905;SDS011;13713;52.552;13.204;2023-02-12T04:04:49;16.92;;;9.95;;
25905;SDS011;13713;52.552;13.204;2023-02-12T04:07:15;18.45;;;10.18;;
25905;SDS011;13713;52.552;13.204;2023-02-12T04:09:42;16.75;;;9.43;;
25905;SDS011;13713;52.552;13.204;2023-02-12T04:12:19;17.15;;;9.75;;
25905;SDS011;13713;52.552;13.204;2023-02-12T04:23:19;18.63;;;9.98;;
25905;SDS011;13713;52.552;13.204;2023-02-12T04:28:56;15.95;;;10.20;;
25905;SDS011;13713;52.552;13.204;2023-02-12T04:34:19;16.35;;;9.50;;
25905;SDS011;13713;52.552;13.204;2023-02-12T04:36:59;16.23;;;9.83;;
25905;SDS011;13713;52.552;13.204;2023-02-12T04:39:35;19.00;;;10.02;;
25905;SDS011;13713;52.552;13.204;2023-02-12T04:42:03;15.75;;;9.77;;
25905;SDS011;13713;52.552;13.204;2023-02-12T04:44:31;16.35;;;9.50;;
25905;SDS011;13713;52.552;13.204;2023-02-12T04:46:59;14.60;;;9.52;;
25905;SDS011;13713;52.552;13.204;2023-02-12T04:49:25;14.48;;;9.70;;
25905;SDS011;13713;52.552;13.204;2023-02-12T04:51:51;17.48;;;9.48;;
25905;SDS011;13713;52.552;13.204;2023-02-12T04:54:18;16.80;;;9.65;;
25905;SDS011;13713;52.552;13.204;2023-02-12T04:56:44;16.95;;;9.85;;
25905;SDS011;13713;52.552;13.204;2023-02-12T04:59:11;14.88;;;8.77;;
25905;SDS011;13713;52.552;13.204;2023-02-12T05:01:37;16.98;;;9.07;;
25905;SDS011;13713;52.552;13.204;2023-02-12T05:04:04;13.90;;;8.82;;
25905;SDS011;13713;52.552;13.204;2023-02-12T05:06:35;15.15;;;9.18;;
25905;SDS011;13713;52.552;13.204;2023-02-12T05:09:01;15.82;;;9.02;;
25905;SDS011;13713;52.552;13.204;2023-02-12T05:11:28;15.80;;;9.05;;
25905;SDS011;13713;52.552;13.204;2023-02-12T05:13:54;15.93;;;8.75;;
25905;SDS011;13713;52.552;13.204;2023-02-12T05:16:21;15.00;;;8.77;;
25905;SDS011;13713;52.552;13.204;2023-02-12T05:18:46;16.30;;;9.57;;
25905;SDS011;13713;52.552;13.204;2023-02-12T05:21:13;14.63;;;9.15;;
25905;SDS011;13713;52.552;13.204;2023-02-12T05:23:39;15.68;;;9.23;;
25905;SDS011;13713;52.552;13.204;2023-02-12T05:26:06;15.50;;;9.57;;
25905;SDS011;13713;52.552;13.204;2023-02-12T05:31:03;16.80;;;8.85;;
25905;SDS011;13713;52.552;13.204;2023-02-12T05:33:30;15.27;;;9.32;;
25905;SDS011;13713;52.552;13.204;2023-02-12T05:36:07;16.13;;;9.43;;
25905;SDS011;13713;52.552;13.204;2023-02-12T05:38:34;13.77;;;8.48;;
25905;SDS011;13713;52.552;13.204;2023-02-12T05:41:22;15.30;;;9.07;;
25905;SDS011;13713;52.552;13.204;2023-02-12T05:43:48;13.70;;;8.32;;
25905;SDS011;13713;52.552;13.204;2023-02-12T05:46:14;15.77;;;8.75;;
25905;SDS011;13713;52.552;13.204;2023-02-12T05:48:41;16.52;;;9.85;;
25905;SDS011;13713;52.552;13.204;2023-02-12T05:51:11;16.67;;;9.45;;
25905;SDS011;13713;52.552;13.204;2023-02-12T05:53:39;14.95;;;9.15;;
25905;SDS011;13713;52.552;13.204;2023-02-12T05:56:10;13.38;;;8.50;;
25905;SDS011;13713;52.552;13.204;2023-02-12T05:58:41;16.00;;;9.45;;
25905;SDS011;13713;52.552;13.204;2023-02-12T06:01:19;15.25;;;8.75;;
25905;SDS011;13713;52.552;13.204;2023-02-12T06:03:47;15.20;;;8.27;;
25905;SDS011;13713;52.552;13.204;2023-02-12T06:06:13;14.80;;;7.75;;
25905;SDS011;13713;52.552;13.204;2023-02-12T06:08:39;15.00;;;9.43;;
25905;SDS011;13713;52.552;13.204;2023-02-12T06:11:06;14.35;;;8.88;;
25905;SDS011;13713;52.552;13.204;2023-02-12T06:13:35;13.52;;;8.57;;
25905;SDS011;13713;52.552;13.204;2023-02-12T06:16:01;14.35;;;8.38;;
25905;SDS011;13713;52.552;13.204;2023-02-12T06:18:27;15.80;;;9.30;;
25905;SDS011;13713;52.552;13.204;2023-02-12T06:20:53;16.33;;;8.77;;
25905;SDS011;13713;52.552;13.204;2023-02-12T06:23:22;15.55;;;8.65;;
25905;SDS011;13713;52.552;13.204;2023-02-12T06:25:50;13.50;;;7.93;;
25905;SDS011;13713;52.552;13.204;2023-02-12T06:28:19;15.32;;;9.18;;
25905;SDS011;13713;52.552;13.204;2023-02-12T06:30:45;13.63;;;8.43;;
25905;SDS011;13713;52.552;13.204;2023-02-12T06:33:11;15.75;;;9.13;;
25905;SDS011;13713;52.552;13.204;2023-02-12T06:35:36;15.85;;;8.80;;
25905;SDS011;13713;52.552;13.204;2023-02-12T06:38:03;14.27;;;8.05;;
25905;SDS011;13713;52.552;13.204;2023-02-12T06:40:29;15.65;;;8.80;;
25905;SDS011;13713;52.552;13.204;2023-02-12T06:42:54;13.57;;;8.23;;
25905;SDS011;13713;52.552;13.204;2023-02-12T06:45:20;14.60;;;8.63;;
25905;SDS011;13713;52.552;13.204;2023-02-12T06:47:46;15.75;;;9.32;;
25905;SDS011;13713;52.552;13.204;2023-02-12T06:50:12;16.50;;;8.60;;
25905;SDS011;13713;52.552;13.204;2023-02-12T06:52:37;16.00;;;9.27;;
25905;SDS011;13713;52.552;13.204;2023-02-12T06:55:03;17.17;;;8.57;;
25905;SDS011;13713;52.552;13.204;2023-02-12T06:57:29;16.45;;;8.43;;
25905;SDS011;13713;52.552;13.204;2023-02-12T06:59:55;14.32;;;8.07;;
25905;SDS011;13713;52.552;13.204;2023-02-12T07:02:20;14.95;;;8.30;;
25905;SDS011;13713;52.552;13.204;2023-02-12T07:04:46;12.20;;;7.63;;
25905;SDS011;13713;52.552;13.204;2023-02-12T07:07:12;12.98;;;7.85;;
25905;SDS011;13713;52.552;13.204;2023-02-12T07:09:38;14.23;;;8.02;;
25905;SDS011;13713;52.552;13.204;2023-02-12T07:12:03;15.60;;;8.43;;
25905;SDS011;13713;52.552;13.204;2023-02-12T07:14:29;15.25;;;7.90;;
25905;SDS011;13713;52.552;13.204;2023-02-12T07:16:55;13.32;;;7.78;;
25905;SDS011;13713;52.552;13.204;2023-02-12T07:19:21;13.85;;;7.68;;
25905;SDS011;13713;52.552;13.204;2023-02-12T07:21:48;13.30;;;8.00;;
25905;SDS011;13713;52.552;13.204;2023-02-12T07:24:14;13.18;;;7.38;;
25905;SDS011;13713;52.552;13.204;2023-02-12T07:26:42;15.25;;;8.00;;
25905;SDS011;13713;52.552;13.204;2023-02-12T07:29:08;14.48;;;8.25;;
25905;SDS011;13713;52.552;13.204;2023-02-12T07:31:34;12.77;;;8.20;;
25905;SDS011;13713;52.552;13.204;2023-02-12T07:34:00;13.00;;;7.65;;
25905;SDS011;13713;52.552;13.204;2023-02-12T07:36:27;15.40;;;8.73;;
25905;SDS011;13713;52.552;13.204;2023-02-12T07:38:54;12.05;;;7.50;;
25905;SDS011;13713;52.552;13.204;2023-02-12T07:41:22;13.13;;;7.93;;
25905;SDS011;13713;52.552;13.204;2023-02-12T07:43:53;13.98;;;8.02;;
25905;SDS011;13713;52.552;13.204;2023-02-12T07:46:22;13.55;;;7.68;;
25905;SDS011;13713;52.552;13.204;2023-02-12T07:48:57;12.18;;;7.40;;
25905;SDS011;13713;52.552;13.204;2023-02-12T07:51:24;11.95;;;7.85;;
25905;SDS011;13713;52.552;13.204;2023-02-12T07:53:51;14.95;;;7.82;;
25905;SDS011;13713;52.552;13.204;2023-02-12T07:56:18;14.50;;;7.95;;
25905;SDS011;13713;52.552;13.204;2023-02-12T07:58:46;13.18;;;7.95;;
25905;SDS011;13713;52.552;13.204;2023-02-12T08:03:45;14.35;;;8.27;;
25905;SDS011;13713;52.552;13.204;2023-02-12T08:06:13;13.07;;;7.93;;
25905;SDS011;13713;52.552;13.204;2023-02-12T08:08:40;14.48;;;7.78;;
25905;SDS011;13713;52.552;13.204;2023-02-12T08:11:06;12.90;;;7.07;;
25905;SDS011;13713;52.552;13.204;2023-02-12T08:13:34;14.45;;;8.30;;
25905;SDS011;13713;52.552;13.204;2023-02-12T08:16:05;14.82;;;7.97;;
25905;SDS011;13713;52.552;13.204;2023-02-12T08:18:33;13.80;;;7.72;;
25905;SDS011;13713;52.552;13.204;2023-02-12T08:21:06;12.32;;;6.75;;
25905;SDS011;13713;52.552;13.204;2023-02-12T08:23:36;14.73;;;8.02;;
25905;SDS011;13713;52.552;13.204;2023-02-12T08:26:18;13.68;;;7.00;;
25905;SDS011;13713;52.552;13.204;2023-02-12T08:28:53;13.30;;;7.22;;
25905;SDS011;13713;52.552;13.204;2023-02-12T08:33:48;14.18;;;7.68;;
25905;SDS011;13713;52.552;13.204;2023-02-12T08:36:15;12.15;;;7.18;;
25905;SDS011;13713;52.552;13.204;2023-02-12T08:38:43;12.85;;;7.22;;
25905;SDS011;13713;52.552;13.204;2023-02-12T08:41:10;12.93;;;7.47;;
25905;SDS011;13713;52.552;13.204;2023-02-12T08:43:42;12.05;;;7.15;;
25905;SDS011;13713;52.552;13.204;2023-02-12T08:48:38;12.38;;;6.78;;
25905;SDS011;13713;52.552;13.204;2023-02-12T08:51:05;14.07;;;7.80;;
25905;SDS011;13713;52.552;13.204;2023-02-12T08:53:42;14.30;;;8.00;;
25905;SDS011;13713;52.552;13.204;2023-02-12T08:56:09;14.82;;;7.53;;
25905;SDS011;13713;52.552;13.204;2023-02-12T08:58:36;14.45;;;7.38;;
25905;SDS011;13713;52.552;13.204;2023-02-12T09:01:03;15.93;;;7.70;;
25905;SDS011;13713;52.552;13.204;2023-02-12T09:03:33;13.20;;;6.95;;
25905;SDS011;13713;52.552;13.204;2023-02-12T09:06:00;11.95;;;7.07;;
25905;SDS011;13713;52.552;13.204;2023-02-12T09:08:27;12.68;;;7.40;;
25905;SDS011;13713;52.552;13.204;2023-02-12T09:10:53;12.20;;;7.13;;
25905;SDS011;13713;52.552;13.204;2023-02-12T09:13:18;14.43;;;8.05;;
25905;SDS011;13713;52.552;13.204;2023-02-12T09:15:44;14.38;;;7.85;;
25905;SDS011;13713;52.552;13.204;2023-02-12T09:18:11;12.98;;;7.10;;
25905;SDS011;13713;52.552;13.204;2023-02-12T09:20:38;14.45;;;7.97;;
25905;SDS011;13713;52.552;13.204;2023-02-12T09:23:06;12.98;;;7.43;;
25905;SDS011;13713;52.552;13.204;2023-02-12T09:25:33;13.90;;;7.30;;
25905;SDS011;13713;52.552;13.204;2023-02-12T09:28:00;13.13;;;7.45;;
25905;SDS011;13713;52.552;13.204;2023-02-12T09:30:26;11.55;;;6.70;;
25905;SDS011;13713;52.552;13.204;2023-02-12T09:32:52;12.23;;;6.70;;
25905;SDS011;13713;52.552;13.204;2023-02-12T09:35:18;13.70;;;7.63;;
25905;SDS011;13713;52.552;13.204;2023-02-12T09:37:44;13.25;;;7.05;;
25905;SDS011;13713;52.552;13.204;2023-02-12T09:40:15;11.70;;;7.10;;
25905;SDS011;13713;52.552;13.204;2023-02-12T09:48:34;12.88;;;7.05;;
25905;SDS011;13713;52.552;13.204;2023-02-12T09:51:22;14.57;;;7.57;;
25905;SDS011;13713;52.552;13.204;2023-02-12T09:53:49;12.48;;;7.38;;
25905;SDS011;13713;52.552;13.204;2023-02-12T09:56:25;12.48;;;7.50;;
25905;SDS011;13713;52.552;13.204;2023-02-12T10:01:20;12.27;;;7.28;;
25905;SDS011;13713;52.552;13.204;2023-02-12T10:03:47;13.63;;;7.15;;
25905;SDS011;13713;52.552;13.204;2023-02-12T10:06:23;12.57;;;6.93;;
25905;SDS011;13713;52.552;13.204;2023-02-12T10:08:59;11.50;;;6.53;;
25905;SDS011;13713;52.552;13.204;2023-02-12T10:25:45;11.65;;;6.85;;
25905;SDS011;13713;52.552;13.204;2023-02-12T10:28:16;13.07;;;7.45;;
25905;SDS011;13713;52.552;13.204;2023-02-12T10:41:57;13.95;;;6.82;;
25905;SDS011;13713;52.552;13.204;2023-02-12T10:44:26;12.30;;;7.18;;
25905;SDS011;13713;52.552;13.204;2023-02-12T10:46:52;15.75;;;6.65;;
25905;SDS011;13713;52.552;13.204;2023-02-12T10:49:18;13.30;;;7.28;;
25905;SDS011;13713;52.552;13.204;2023-02-12T10:54:44;12.63;;;6.75;;
25905;SDS011;13713;52.552;13.204;2023-02-12T10:57:23;13.73;;;7.13;;
25905;SDS011;13713;52.552;13.204;2023-02-12T10:59:52;13.30;;;7.13;;
25905;SDS011;13713;52.552;13.204;2023-02-12T11:04:50;12.77;;;6.68;;
25905;SDS011;13713;52.552;13.204;2023-02-12T11:07:18;13.52;;;7.38;;
25905;SDS011;13713;52.552;13.204;2023-02-12T11:09:47;11.35;;;6.53;;
25905;SDS011;13713;52.552;13.204;2023-02-12T11:14:57;14.52;;;8.10;;
25905;SDS011;13713;52.552;13.204;2023-02-12T11:17:27;13.25;;;7.20;;
25905;SDS011;13713;52.552;13.204;2023-02-12T11:20:00;13.52;;;6.28;;
25905;SDS011;13713;52.552;13.204;2023-02-12T11:22:51;13.45;;;6.88;;
25905;SDS011;13713;52.552;13.204;2023-02-12T11:25:19;14.95;;;7.82;;
25905;SDS011;13713;52.552;13.204;2023-02-12T11:27:57;11.75;;;6.72;;
25905;SDS011;13713;52.552;13.204;2023-02-12T11:31:03;14.20;;;6.28;;
25905;SDS011;13713;52.552;13.204;2023-02-12T11:33:38;15.13;;;7.28;;
25905;SDS011;13713;52.552;13.204;2023-02-12T11:36:10;16.45;;;6.85;;
25905;SDS011;13713;52.552;13.204;2023-02-12T11:38:52;13.35;;;7.15;;
25905;SDS011;13713;52.552;13.204;2023-02-12T11:47:09;14.18;;;6.75;;
25905;SDS011;13713;52.552;13.204;2023-02-12T11:50:06;11.98;;;6.20;;
25905;SDS011;13713;52.552;13.204;2023-02-12T11:55:23;16.45;;;7.80;;
25905;SDS011;13713;52.552;13.204;2023-02-12T12:00:44;13.80;;;7.35;;
25905;SDS011;13713;52.552;13.204;2023-02-12T12:05:55;14.10;;;6.65;;
25905;SDS011;13713;52.552;13.204;2023-02-12T12:08:31;11.90;;;6.63;;
25905;SDS011;13713;52.552;13.204;2023-02-12T12:11:28;15.93;;;7.28;;
25905;SDS011;13713;52.552;13.204;2023-02-12T12:20:40;13.80;;;6.85;;
25905;SDS011;13713;52.552;13.204;2023-02-12T12:23:15;12.82;;;6.82;;
25905;SDS011;13713;52.552;13.204;2023-02-12T12:25:58;15.60;;;7.18;;
25905;SDS011;13713;52.552;13.204;2023-02-12T12:31:14;12.35;;;6.95;;
25905;SDS011;13713;52.552;13.204;2023-02-12T12:36:30;12.63;;;6.47;;
25905;SDS011;13713;52.552;13.204;2023-02-12T12:46:54;13.80;;;7.47;;
25905;SDS011;13713;52.552;13.204;2023-02-12T12:52:02;15.32;;;7.07;;
25905;SDS011;13713;52.552;13.204;2023-02-12T12:57:10;11.48;;;6.38;;
25905;SDS011;13713;52.552;13.204;2023-02-12T12:59:54;17.27;;;8.00;;
25905;SDS011;13713;52.552;13.204;2023-02-12T13:06:07;14.20;;;6.97;;
25905;SDS011;13713;52.552;13.204;2023-02-12T13:09:25;15.52;;;7.32;;
25905;SDS011;13713;52.552;13.204;2023-02-12T13:17:26;12.35;;;6.55;;
25905;SDS011;13713;52.552;13.204;2023-02-12T13:20:14;14.13;;;6.85;;
25905;SDS011;13713;52.552;13.204;2023-02-12T13:23:10;11.85;;;6.68;;
25905;SDS011;13713;52.552;13.204;2023-02-12T13:25:42;14.35;;;7.88;;
25905;SDS011;13713;52.552;13.204;2023-02-12T13:28:24;13.88;;;7.28;;
25905;SDS011;13713;52.552;13.204;2023-02-12T13:31:02;12.23;;;6.45;;
25905;SDS011;13713;52.552;13.204;2023-02-12T13:33:38;14.55;;;7.40;;
25905;SDS011;13713;52.552;13.204;2023-02-12T13:36:07;13.80;;;6.88;;
25905;SDS011;13713;52.552;13.204;2023-02-12T13:38:37;12.07;;;7.22;;
25905;SDS011;13713;52.552;13.204;2023-02-12T13:41:09;11.80;;;6.72;;
25905;SDS011;13713;52.552;13.204;2023-02-12T13:43:44;13.50;;;7.10;;
25905;SDS011;13713;52.552;13.204;2023-02-12T13:46:38;14.25;;;7.05;;
25905;SDS011;13713;52.552;13.204;2023-02-12T13:49:51;13.10;;;7.18;;
25905;SDS011;13713;52.552;13.204;2023-02-12T13:52:27;15.85;;;6.22;;
25905;SDS011;13713;52.552;13.204;2023-02-12T13:57:45;12.68;;;6.78;;
25905;SDS011;13713;52.552;13.204;2023-02-12T14:01:15;13.90;;;7.53;;
25905;SDS011;13713;52.552;13.204;2023-02-12T14:03:29;10.07;;;5.53;;
25905;SDS011;13713;52.552;13.204;2023-02-12T14:08:40;13.25;;;7.05;;
25905;SDS011;13713;52.552;13.204;2023-02-12T14:11:09;14.15;;;6.75;;
25905;SDS011;13713;52.552;13.204;2023-02-12T14:13:54;12.75;;;7.30;;
25905;SDS011;13713;52.552;13.204;2023-02-12T14:21:38;15.75;;;7.25;;
25905;SDS011;13713;52.552;13.204;2023-02-12T14:27:02;12.23;;;6.35;;
25905;SDS011;13713;52.552;13.204;2023-02-12T14:29:31;14.30;;;6.78;;
25905;SDS011;13713;52.552;13.204;2023-02-12T14:31:56;15.80;;;7.00;;
25905;SDS011;13713;52.552;13.204;2023-02-12T14:36:49;15.45;;;7.22;;
25905;SDS011;13713;52.552;13.204;2023-02-12T14:39:35;12.98;;;6.63;;
25905;SDS011;13713;52.552;13.204;2023-02-12T14:44:37;14.20;;;6.95;;
25905;SDS011;13713;52.552;13.204;2023-02-12T14:47:13;15.10;;;7.05;;
25905;SDS011;13713;52.552;13.204;2023-02-12T14:49:54;12.50;;;6.55;;
25905;SDS011;13713;52.552;13.204;2023-02-12T14:52:28;12.65;;;6.85;;
25905;SDS011;13713;52.552;13.204;2023-02-12T14:54:57;14.52;;;6.35;;
25905;SDS011;13713;52.552;13.204;2023-02-12T14:57:36;13.00;;;6.88;;
25905;SDS011;13713;52.552;13.204;2023-02-12T15:02:50;13.50;;;6.93;;
25905;SDS011;13713;52.552;13.204;2023-02-12T15:05:33;13.27;;;6.53;;
25905;SDS011;13713;52.552;13.204;2023-02-12T15:08:25;14.55;;;7.10;;
25905;SDS011;13713;52.552;13.204;2023-02-12T15:13:51;13.82;;;7.07;;
25905;SDS011;13713;52.552;13.204;2023-02-12T15:19:13;11.07;;;6.55;;
25905;SDS011;13713;52.552;13.204;2023-02-12T15:21:59;13.73;;;6.82;;
25905;SDS011;13713;52.552;13.204;2023-02-12T15:24:25;13.40;;;7.07;;
25905;SDS011;13713;52.552;13.204;2023-02-12T15:26:55;13.73;;;6.65;;
25905;SDS011;13713;52.552;13.204;2023-02-12T15:29:35;12.13;;;6.60;;
25905;SDS011;13713;52.552;13.204;2023-02-12T15:32:08;14.85;;;7.13;;
25905;SDS011;13713;52.552;13.204;2023-02-12T15:34:42;14.60;;;6.45;;
25905;SDS011;13713;52.552;13.204;2023-02-12T15:37:15;11.45;;;6.20;;
25905;SDS011;13713;52.552;13.204;2023-02-12T15:39:46;15.23;;;6.97;;
25905;SDS011;13713;52.552;13.204;2023-02-12T15:42:22;14.25;;;6.90;;
25905;SDS011;13713;52.552;13.204;2023-02-12T15:47:40;15.17;;;7.40;;
25905;SDS011;13713;52.552;13.204;2023-02-12T15:50:13;13.27;;;6.97;;
25905;SDS011;13713;52.552;13.204;2023-02-12T15:52:40;12.85;;;6.22;;
25905;SDS011;13713;52.552;13.204;2023-02-12T15:55:16;13.63;;;6.25;;
25905;SDS011;13713;52.552;13.204;2023-02-12T15:57:52;13.68;;;6.75;;
25905;SDS011;13713;52.552;13.204;2023-02-12T16:00:31;13.32;;;6.75;;
25905;SDS011;13713;52.552;13.204;2023-02-12T16:03:04;12.68;;;6.43;;
25905;SDS011;13713;52.552;13.204;2023-02-12T16:05:42;10.98;;;6.03;;
25905;SDS011;13713;52.552;13.204;2023-02-12T16:08:09;12.35;;;6.13;;
25905;SDS011;13713;52.552;13.204;2023-02-12T16:10:43;13.40;;;7.35;;
25905;SDS011;13713;52.552;13.204;2023-02-12T16:13:32;12.23;;;7.18;;
25905;SDS011;13713;52.552;13.204;2023-02-12T16:16:14;12.25;;;7.15;;
25905;SDS011;13713;52.552;13.204;2023-02-12T16:18:43;14.75;;;7.10;;
25905;SDS011;13713;52.552;13.204;2023-02-12T16:21:20;12.82;;;6.78;;
25905;SDS011;13713;52.552;13.204;2023-02-12T16:23:48;13.95;;;7.03;;
25905;SDS011;13713;52.552;13.204;2023-02-12T16:26:19;13.07;;;6.82;;
25905;SDS011;13713;52.552;13.204;2023-02-12T16:28:47;14.50;;;7.07;;
25905;SDS011;13713;52.552;13.204;2023-02-12T16:31:16;10.55;;;6.15;;
25905;SDS011;13713;52.552;13.204;2023-02-12T16:33:47;12.98;;;6.70;;
25905;SDS011;13713;52.552;13.204;2023-02-12T16:43:48;13.73;;;6.40;;
25905;SDS011;13713;52.552;13.204;2023-02-12T16:46:33;11.30;;;6.00;;
25905;SDS011;13713;52.552;13.204;2023-02-12T16:49:20;12.15;;;6.28;;
25905;SDS011;13713;52.552;13.204;2023-02-12T16:51:48;13.23;;;6.57;;
25905;SDS011;13713;52.552;13.204;2023-02-12T16:54:31;11.63;;;6.38;;
25905;SDS011;13713;52.552;13.204;2023-02-12T16:56:59;11.07;;;6.38;;
25905;SDS011;13713;52.552;13.204;2023-02-12T16:59:26;13.02;;;6.53;;
25905;SDS011;13713;52.552;13.204;2023-02-12T17:01:57;11.00;;;6.15;;
25905;SDS011;13713;52.552;13.204;2023-02-12T17:04:28;12.48;;;6.35;;
25905;SDS011;13713;52.552;13.204;2023-02-12T17:06:54;14.48;;;6.88;;
25905;SDS011;13713;52.552;13.204;2023-02-12T17:09:20;12.98;;;6.78;;
25905;SDS011;13713;52.552;13.204;2023-02-12T17:11:46;12.65;;;6.57;;
25905;SDS011;13713;52.552;13.204;2023-02-12T17:14:13;11.70;;;6.18;;
25905;SDS011;13713;52.552;13.204;2023-02-12T17:16:41;11.73;;;6.20;;
25905;SDS011;13713;52.552;13.204;2023-02-12T17:19:07;12.10;;;5.93;;
25905;SDS011;13713;52.552;13.204;2023-02-12T17:21:34;11.73;;;6.20;;
25905;SDS011;13713;52.552;13.204;2023-02-12T17:24:04;13.35;;;6.10;;
25905;SDS011;13713;52.552;13.204;2023-02-12T17:26:30;12.93;;;6.68;;
25905;SDS011;13713;52.552;13.204;2023-02-12T17:28:56;12.00;;;5.90;;
25905;SDS011;13713;52.552;13.204;2023-02-12T17:31:29;12.45;;;6.57;;
25905;SDS011;13713;52.552;13.204;2023-02-12T17:33:56;11.13;;;6.13;;
25905;SDS011;13713;52.552;13.204;2023-02-12T17:36:22;12.32;;;6.80;;
25905;SDS011;13713;52.552;13.204;2023-02-12T17:38:49;10.30;;;5.57;;
25905;SDS011;13713;52.552;13.204;2023-02-12T17:41:15;12.85;;;6.60;;